Weather at Tirlta Station Airstrip

Public forecast

Using degrees Celsius for public forecast. Weather courtesy of forecast.io.

Closest aviation weather report (METAR) to Tirlta Station Airstrip

Report is more than 6 hours old.

Closest report is Broken Hill Airport, 55.1 nm (102.1 km) SW. Retrieved 2022/05/12 00:00 UTC (3 months ago):

YBHI 120000Z AUTO 19006KT 4000 // OVC003 OVC009 14/14 Q1016

Closest aviation forecast (TAF) to Tirlta Station Airstrip

Forecast is more than 12 hours old.

Closest forecast is Whyalla Airport, 256.9 nm (475.7 km) WSW. Retrieved 2018/11/15 18:03 UTC (4 years ago):

TAF YWHA 151701Z 1518/1608 VRB05KT CAVOK FM152300 18012KT CAVOK FM160200 18018KT CAVOK